Terminal Aerodrome Forecast
Issued by NWS Billings, MT

Home | Current Version | Previous Version | Text Only | Print | Product List | Glossary Off
Versions: 1 2 3 4 5 6 7 8 9 10 11 12 13 14 15 16 17 18 19 20 21 22 23 24 25 26 27 28 29 30

000
FTUS45 KBYZ 301515 AAA
TAFMLS
TAF AMD
KMLS 301515Z 3015/3112 22008KT P6SM VCSH SCT080 BKN120
     FM301800 27012KT P6SM SCT100 BKN150
     FM310200 31022G32KT P6SM VCSH BKN080=

USA.gov is the U.S. government's official web portal to all federal, state and local government web resources and services.